Time;durP1;ratioP1;P1;durP2;ratioP2;P2;SDS_P1;SDS_P2;PMS_P1;PMS_P2;Temp;Humidity;BMP_temperature;BMP_pressure;BME280_temperature;BME280_humidity;BME280_pressure;Samples;Min_cycle;Max_cycle;Signal;HPM_P1;HPM_P2
2023/01/02 00:02:10;;;;;;;73.10;40.70;;;;;;;2.14;96.64;100939.88;5106354;28;20031;-71
2023/01/02 00:04:36;;;;;;;84.72;43.33;;;;;;;2.06;97.68;100943.84;5104515;28;20034;-71
2023/01/02 00:07:01;;;;;;;83.38;44.45;;;;;;;1.99;98.55;100937.59;5113921;28;20031;-70
2023/01/02 00:09:26;;;;;;;78.35;43.80;;;;;;;1.97;98.72;100945.28;5113373;28;20390;-71
2023/01/02 00:11:52;;;;;;;75.20;40.45;;;;;;;1.95;98.61;100934.47;5096360;28;20055;-70
2023/01/02 00:14:17;;;;;;;80.75;39.60;;;;;;;1.95;98.33;100939.19;5102039;28;20038;-71
2023/01/02 00:16:43;;;;;;;72.18;39.13;;;;;;;1.95;98.26;100936.41;5115033;28;20497;-71
2023/01/02 00:19:09;;;;;;;69.55;38.25;;;;;;;2.00;97.64;100933.75;5115038;28;20455;-71
2023/01/02 00:21:34;;;;;;;71.47;38.83;;;;;;;2.22;97.18;100946.94;5108539;28;20028;-71
2023/01/02 00:24:00;;;;;;;69.50;38.75;;;;;;;2.26;95.41;100936.25;5103118;28;20027;-71
2023/01/02 00:26:25;;;;;;;66.55;38.50;;;;;;;2.31;94.83;100947.41;5112669;28;20033;-70
2023/01/02 00:28:51;;;;;;;68.60;38.30;;;;;;;2.09;94.26;100954.41;5113838;28;20034;-70
2023/01/02 00:31:16;;;;;;;69.32;39.20;;;;;;;1.71;96.06;100947.47;5113538;28;20039;-70
2023/01/02 00:33:42;;;;;;;68.82;37.50;;;;;;;1.68;96.78;100948.78;5114622;28;20028;-71
2023/01/02 00:36:10;;;;;;;63.42;36.20;;;;;;;1.72;97.84;100951.03;5113292;28;20478;-71
2023/01/02 00:38:36;;;;;;;66.65;37.65;;;;;;;1.79;98.05;100957.31;5113690;28;20043;-71
2023/01/02 00:41:03;;;;;;;57.95;33.58;;;;;;;1.83;98.95;100947.44;5108871;28;20027;-71
2023/01/02 00:43:28;;;;;;;65.05;34.65;;;;;;;1.85;100.00;100949.97;5113156;28;20110;-70
2023/01/02 00:45:54;;;;;;;58.83;32.38;;;;;;;1.98;100.00;100944.22;5112422;28;20078;-71
2023/01/02 00:48:20;;;;;;;61.78;32.45;;;;;;;2.04;99.65;100950.69;5114343;28;20028;-71
2023/01/02 00:50:46;;;;;;;64.93;34.40;;;;;;;1.99;98.82;100945.88;5112314;27;20424;-71
2023/01/02 00:53:11;;;;;;;66.40;34.50;;;;;;;1.83;98.70;100944.69;5111414;28;20027;-71
2023/01/02 00:55:37;;;;;;;58.65;33.42;;;;;;;1.89;99.04;100952.03;5111179;28;20496;-70
2023/01/02 00:58:02;;;;;;;60.70;33.17;;;;;;;1.82;99.40;100931.97;5102353;28;20494;-71
2023/01/02 01:00:28;;;;;;;70.45;37.90;;;;;;;1.90;99.59;100941.81;5111914;28;20035;-71
2023/01/02 01:02:58;;;;;;;63.90;40.40;;;;;;;1.99;99.36;100942.28;5114349;28;20053;-71
2023/01/02 01:05:24;;;;;;;65.90;38.95;;;;;;;1.93;100.00;100941.31;5113509;28;20047;-70
2023/01/02 01:07:50;;;;;;;61.88;34.42;;;;;;;2.04;100.00;100934.13;5111892;28;20027;-71
2023/01/02 01:10:16;;;;;;;67.80;33.92;;;;;;;2.14;99.06;100939.88;5097979;28;20093;-70
2023/01/02 01:12:41;;;;;;;68.00;34.20;;;;;;;2.06;99.83;100940.25;5093041;28;20493;-71
2023/01/02 01:15:07;;;;;;;67.88;36.33;;;;;;;2.01;100.00;100940.97;5126494;27;20077;-71
2023/01/02 01:17:33;;;;;;;62.40;33.50;;;;;;;1.99;99.96;100920.19;5108236;28;20553;-70
2023/01/02 01:19:58;;;;;;;63.20;35.03;;;;;;;2.09;99.37;100921.28;5111255;28;20076;-71
2023/01/02 01:22:24;;;;;;;60.42;34.17;;;;;;;2.14;99.15;100927.97;5093322;28;20032;-71
2023/01/02 01:24:49;;;;;;;65.85;33.38;;;;;;;2.27;98.41;100922.19;5105210;28;20027;-71
2023/01/02 01:27:15;;;;;;;57.08;33.58;;;;;;;2.18;98.36;100927.25;5113604;28;20505;-71
2023/01/02 01:29:40;;;;;;;60.33;32.95;;;;;;;2.18;97.80;100923.66;5107096;28;20410;-71
2023/01/02 01:32:06;;;;;;;60.80;34.53;;;;;;;2.16;97.47;100917.53;5113365;28;20027;-71
2023/01/02 01:34:31;;;;;;;63.00;37.05;;;;;;;1.80;97.46;100904.63;5112125;28;20426;-71
2023/01/02 01:36:57;;;;;;;59.30;35.08;;;;;;;1.96;97.69;100910.50;5112188;28;20548;-70
2023/01/02 01:39:22;;;;;;;65.43;34.88;;;;;;;1.79;97.30;100897.41;5112987;28;20035;-71
2023/01/02 01:41:48;;;;;;;63.55;36.05;;;;;;;1.40;98.81;100897.06;5111021;28;20027;-71
2023/01/02 01:44:41;;;;;;;61.03;34.42;;;;;;;1.29;99.14;100897.91;5111450;28;20032;-71
2023/01/02 01:47:39;;;;;;;63.35;33.83;;;;;;;1.11;99.93;100883.16;5108224;28;20104;-71
2023/01/02 01:50:18;;;;;;;68.75;35.75;;;;;;;1.24;100.00;100888.44;5108167;28;20104;-70
2023/01/02 01:52:53;;;;;;;64.07;36.15;;;;;;;1.07;100.00;100882.78;5111877;28;20061;-70
2023/01/02 01:55:45;;;;;;;70.07;36.63;;;;;;;1.23;100.00;100881.25;5112411;27;20130;-70
2023/01/02 01:58:16;;;;;;;65.97;37.33;;;;;;;1.24;100.00;100879.31;5103947;28;20520;-71
2023/01/02 02:00:42;;;;;;;61.67;36.03;;;;;;;1.40;100.00;100886.03;5110828;28;20031;-71
2023/01/02 02:03:13;;;;;;;61.47;34.50;;;;;;;1.47;100.00;100888.69;5107581;28;20030;-71
2023/01/02 02:05:41;;;;;;;59.00;31.83;;;;;;;1.56;100.00;100880.88;5109761;28;20041;-71
2023/01/02 02:08:12;;;;;;;51.55;30.90;;;;;;;1.51;100.00;100884.38;5112840;28;20539;-70
2023/01/02 02:10:38;;;;;;;57.33;29.70;;;;;;;1.66;100.00;100878.34;5110075;28;20391;-70
2023/01/02 02:13:04;;;;;;;50.25;28.23;;;;;;;1.64;100.00;100880.53;5091034;28;20035;-70
2023/01/02 02:15:56;;;;;;;40.13;23.67;;;;;;;1.60;100.00;100887.63;5091128;28;20028;-71
2023/01/02 02:18:49;;;;;;;43.13;24.73;;;;;;;1.63;100.00;100884.38;5085846;28;20105;-71
2023/01/02 02:21:42;;;;;;;52.15;28.55;;;;;;;1.47;100.00;100889.53;5112705;28;20073;-70
2023/01/02 02:24:29;;;;;;;57.35;28.90;;;;;;;1.24;100.00;100888.44;5102702;28;20039;-71
2023/01/02 02:27:12;;;;;;;53.25;28.58;;;;;;;1.00;100.00;100884.78;5110318;28;20024;-70
2023/01/02 02:30:22;;;;;;;61.85;32.45;;;;;;;0.98;100.00;100896.06;5098780;28;20059;-70
2023/01/02 02:33:02;;;;;;;;;;;;;;;0.90;100.00;100898.28;5103478;28;20070;-71
2023/01/02 02:35:42;;;;;;;55.83;30.63;;;;;;;0.82;100.00;100897.56;5112350;28;19947;-71
2023/01/02 02:38:14;;;;;;;;;;;;;;;0.81;100.00;100889.53;5111439;28;20110;-70
2023/01/02 02:41:22;;;;;;;61.42;29.13;;;;;;;0.74;100.00;100886.06;5111834;28;19912;-70
2023/01/02 02:44:10;;;;;;;56.05;31.05;;;;;;;0.79;100.00;100891.69;5109765;28;20024;-71
2023/01/02 02:46:57;;;;;;;62.00;34.40;;;;;;;0.77;100.00;100885.56;5112157;28;20031;-70
2023/01/02 02:49:49;;;;;;;59.03;33.13;;;;;;;0.78;100.00;100878.97;5111540;28;20020;-71
2023/01/02 02:52:45;;;;;;;61.33;30.45;;;;;;;0.98;100.00;100875.91;5111166;28;20080;-70
2023/01/02 02:55:22;;;;;;;59.60;31.35;;;;;;;1.12;100.00;100866.34;5100212;28;20039;-70
2023/01/02 02:57:49;;;;;;;56.20;33.08;;;;;;;1.12;100.00;100863.59;5108447;28;20030;-70
2023/01/02 03:00:18;;;;;;;57.85;31.23;;;;;;;1.20;100.00;100869.84;5093702;28;20032;-70
2023/01/02 03:02:44;;;;;;;55.28;28.83;;;;;;;1.09;100.00;100866.00;5090413;28;20024;-71
2023/01/02 03:05:15;;;;;;;57.83;35.22;;;;;;;0.96;100.00;100865.13;5093546;28;20037;-70
2023/01/02 03:08:34;;;;;;;58.17;33.80;;;;;;;1.15;100.00;100872.47;5112058;28;20027;-70
2023/01/02 03:11:02;;;;;;;66.20;33.57;;;;;;;1.03;100.00;100865.03;5012572;28;20565;-71
2023/01/02 03:13:27;;;;;;;58.25;31.38;;;;;;;1.01;100.00;100864.41;5095738;28;20036;-71
2023/01/02 03:16:10;;;;;;;58.63;31.80;;;;;;;1.15;100.00;100873.31;5111899;28;20034;-71
2023/01/02 03:18:51;;;;;;;57.95;31.20;;;;;;;1.36;100.00;100876.56;5107291;28;20037;-71
2023/01/02 03:21:26;;;;;;;53.53;29.48;;;;;;;1.65;100.00;100873.94;5111076;28;20034;-70
2023/01/02 03:23:53;;;;;;;51.13;29.17;;;;;;;1.46;100.00;100870.47;5110673;28;20034;-70
2023/01/02 03:26:24;;;;;;;48.80;29.58;;;;;;;1.72;100.00;100866.38;5108421;28;20111;-70
2023/01/02 03:28:55;;;;;;;53.50;30.85;;;;;;;1.80;98.37;100868.75;5109998;28;20027;-71
2023/01/02 03:31:25;;;;;;;55.30;29.20;;;;;;;1.89;97.22;100863.72;5111736;28;20027;-70
2023/01/02 03:33:57;;;;;;;;;;;;;;;1.97;95.57;100873.53;5109935;28;20031;-70
2023/01/02 03:36:27;;;;;;;50.72;28.25;;;;;;;2.07;94.72;100872.91;5109683;28;19954;-71
2023/01/02 03:39:03;;;;;;;48.45;28.02;;;;;;;1.97;93.97;100879.06;5111664;28;20023;-71
2023/01/02 03:41:37;;;;;;;51.05;30.50;;;;;;;1.98;93.49;100883.50;5115816;28;20566;-71
2023/01/02 03:44:06;;;;;;;54.80;31.70;;;;;;;1.82;93.13;100877.66;5115698;28;20094;-71
2023/01/02 03:46:31;;;;;;;48.20;28.48;;;;;;;1.65;92.53;100882.19;5115638;28;20026;-71
2023/01/02 03:49:11;;;;;;;50.42;30.23;;;;;;;1.94;92.90;100885.06;5114356;28;20454;-71
2023/01/02 03:51:37;;;;;;;55.25;30.38;;;;;;;1.94;91.34;100883.13;5115656;28;20019;-71
2023/01/02 03:54:04;;;;;;;56.80;28.67;;;;;;;1.91;91.25;100877.25;5114601;28;20032;-71
2023/01/02 03:56:55;;;;;;;57.35;31.23;;;;;;;1.85;90.54;100872.72;5115399;28;20710;-70
2023/01/02 03:59:43;;;;;;;56.38;30.27;;;;;;;1.90;90.86;100878.34;5114732;28;20027;-71
2023/01/02 04:02:44;;;;;;;56.58;31.17;;;;;;;1.95;90.50;100882.03;5114150;28;20023;-71
2023/01/02 04:05:10;;;;;;;65.38;35.85;;;;;;;1.43;92.40;100881.97;5103617;28;20252;-71
2023/01/02 04:07:57;;;;;;;55.08;30.95;;;;;;;1.29;93.16;100878.59;5115367;27;20507;-71
2023/01/02 04:10:25;;;;;;;50.92;29.17;;;;;;;1.55;92.68;100866.25;5096227;28;20566;-71
2023/01/02 04:12:54;;;;;;;63.33;33.85;;;;;;;1.81;92.21;100891.66;5110370;28;20080;-71
2023/01/02 04:15:24;;;;;;;57.35;32.45;;;;;;;1.91;91.60;100882.78;5113719;28;20080;-71
2023/01/02 04:18:00;;;;;;;54.47;31.42;;;;;;;2.06;91.00;100899.69;5115147;28;20023;-71
2023/01/02 04:20:30;;;;;;;56.13;29.65;;;;;;;2.11;90.67;100893.41;5113830;28;20053;-71
2023/01/02 04:23:26;;;;;;;50.55;28.67;;;;;;;2.21;90.32;100890.88;5115023;28;20065;-71
2023/01/02 04:26:00;;;;;;;54.83;29.80;;;;;;;2.25;89.04;100893.97;5093137;28;20034;-71
2023/01/02 04:28:29;;;;;;;52.40;29.77;;;;;;;2.06;88.77;100888.66;5094049;28;20459;-72
2023/01/02 04:31:02;;;;;;;51.85;28.85;;;;;;;2.24;88.99;100897.84;5112812;27;20024;-71
2023/01/02 04:33:32;;;;;;;56.88;31.63;;;;;;;2.10;88.77;100894.50;5113905;28;20027;-71
2023/01/02 04:35:57;;;;;;;52.90;29.70;;;;;;;2.16;89.09;100898.19;5113345;28;20030;-71
2023/01/02 04:38:23;;;;;;;51.67;27.25;;;;;;;2.23;88.39;100893.41;5112844;28;20019;-71
2023/01/02 04:40:48;;;;;;;46.72;27.88;;;;;;;2.25;88.02;100896.75;5092931;28;20054;-70
2023/01/02 04:43:19;;;;;;;54.95;29.98;;;;;;;2.14;87.71;100889.34;5097816;28;20024;-71
2023/01/02 04:45:48;;;;;;;52.92;29.00;;;;;;;2.26;87.52;100890.13;5113974;28;20038;-71
2023/01/02 04:48:15;;;;;;;52.97;30.75;;;;;;;2.05;86.32;100902.69;5114432;28;20127;-71
2023/01/02 04:50:40;;;;;;;51.03;28.63;;;;;;;1.95;86.66;100886.75;5113462;28;20502;-71
2023/01/02 04:53:06;;;;;;;52.67;30.17;;;;;;;1.99;87.43;100887.06;5113182;28;20023;-70
2023/01/02 04:55:31;;;;;;;60.60;29.98;;;;;;;2.04;87.35;100890.78;5112123;28;20047;-71
2023/01/02 04:57:57;;;;;;;58.00;31.20;;;;;;;1.74;87.76;100897.31;5113588;28;20398;-71
2023/01/02 05:00:23;;;;;;;57.80;32.80;;;;;;;1.22;90.08;100890.59;5109542;28;20179;-71
2023/01/02 05:02:48;;;;;;;62.92;37.92;;;;;;;0.92;91.58;100890.66;5114173;28;20035;-71
2023/01/02 05:05:14;;;;;;;62.15;35.05;;;;;;;1.27;91.85;100881.63;5114035;28;20015;-70
2023/01/02 05:07:39;;;;;;;69.80;34.72;;;;;;;1.46;90.81;100892.53;5114099;28;20094;-70
2023/01/02 05:10:05;;;;;;;69.70;38.35;;;;;;;1.68;90.21;100887.22;5113069;28;20410;-70
2023/01/02 05:12:35;;;;;;;72.78;35.40;;;;;;;1.76;89.80;100891.56;5112056;28;20054;-70
2023/01/02 05:15:02;;;;;;;78.03;41.85;;;;;;;1.70;89.28;100879.56;5110456;28;20031;-71
2023/01/02 05:17:28;;;;;;;62.03;35.28;;;;;;;1.51;88.77;100876.94;5111279;28;20417;-71
2023/01/02 05:19:53;;;;;;;64.53;35.40;;;;;;;1.03;90.94;100875.22;5112770;28;20019;-72
2023/01/02 05:25:04;;;;;;;95.90;50.03;;;;;;;1.17;92.43;100871.16;5113246;28;20552;-72
2023/01/02 05:27:30;;;;;;;122.05;65.03;;;;;;;0.52;95.23;100878.31;5114564;28;20136;-75
2023/01/02 05:29:55;;;;;;;87.57;48.55;;;;;;;0.46;99.46;100871.81;5111640;28;20060;-71
2023/01/02 05:32:21;;;;;;;113.65;63.10;;;;;;;0.44;100.00;100876.72;5112885;28;20027;-70
2023/01/02 05:34:47;;;;;;;87.53;51.25;;;;;;;0.52;100.00;100878.31;5109881;28;20027;-69
2023/01/02 05:37:12;;;;;;;73.60;44.28;;;;;;;0.73;99.78;100871.41;5112451;28;20073;-72
2023/01/02 05:39:37;;;;;;;71.47;39.60;;;;;;;0.82;99.03;100881.03;5100452;28;20077;-71
2023/01/02 05:42:03;;;;;;;84.05;43.60;;;;;;;0.65;98.71;100869.84;5107441;28;20031;-72
2023/01/02 05:44:28;;;;;;;75.05;38.92;;;;;;;0.73;99.93;100876.94;5108499;28;20025;-72
2023/01/02 05:46:54;;;;;;;76.93;36.38;;;;;;;0.67;99.20;100883.41;5111593;28;20065;-72
2023/01/02 05:49:19;;;;;;;79.22;43.05;;;;;;;0.66;98.86;100873.41;5106249;28;20509;-73
2023/01/02 05:51:45;;;;;;;116.72;61.45;;;;;;;0.55;96.85;100878.69;5106535;28;20513;-72
2023/01/02 05:54:10;;;;;;;86.25;42.72;;;;;;;0.51;96.13;100879.38;5116227;27;20115;-72
2023/01/02 05:56:36;;;;;;;64.35;37.10;;;;;;;0.10;97.66;100885.38;5111944;28;20055;-72
2023/01/02 05:59:05;;;;;;;76.60;41.28;;;;;;;0.04;99.68;100880.81;5110948;28;20023;-72
2023/01/02 06:01:30;;;;;;;80.85;42.78;;;;;;;0.06;100.00;100889.69;5108783;28;20027;-72
2023/01/02 06:03:57;;;;;;;83.00;46.05;;;;;;;0.05;100.00;100885.25;5110388;28;20028;-71
2023/01/02 06:06:28;;;;;;;79.40;38.80;;;;;;;0.15;100.00;100892.13;5110389;28;20034;-72
2023/01/02 06:08:54;;;;;;;70.32;40.25;;;;;;;0.30;100.00;100888.94;5097545;28;20035;-72
2023/01/02 06:11:20;;;;;;;97.63;52.60;;;;;;;0.32;100.00;100893.16;5090340;28;20486;-72
2023/01/02 06:13:45;;;;;;;86.97;46.72;;;;;;;0.50;100.00;100900.56;5110288;28;20494;-72
2023/01/02 06:16:11;;;;;;;82.47;31.50;;;;;;;0.55;100.00;100902.59;5112090;28;20028;-72
2023/01/02 06:18:38;;;;;;;53.33;27.90;;;;;;;0.43;100.00;100893.47;5109325;28;20035;-72
2023/01/02 06:21:09;;;;;;;55.58;28.70;;;;;;;0.36;100.00;100894.41;5109308;28;20387;-72
2023/01/02 06:23:34;;;;;;;56.10;29.15;;;;;;;0.32;100.00;100889.59;5110534;28;20027;-74
2023/01/02 06:26:14;;;;;;;58.88;33.03;;;;;;;0.27;100.00;100904.03;5102258;28;20024;-75
2023/01/02 06:28:40;;;;;;;61.90;34.58;;;;;;;0.29;100.00;100893.63;5098289;28;20440;-72
2023/01/02 06:31:08;;;;;;;65.97;41.03;;;;;;;0.46;100.00;100910.34;5100157;28;20100;-74
2023/01/02 06:33:34;;;;;;;78.45;43.25;;;;;;;0.53;100.00;100913.03;5109217;28;20524;-74
2023/01/02 06:36:01;;;;;;;62.13;34.22;;;;;;;0.73;100.00;100920.19;5108761;28;20065;-73
2023/01/02 06:38:27;;;;;;;72.82;41.90;;;;;;;0.76;100.00;100916.94;5109010;28;20111;-73
2023/01/02 06:40:54;;;;;;;63.08;36.85;;;;;;;0.79;100.00;100922.84;5108323;28;20478;-76
2023/01/02 06:43:21;;;;;;;76.30;42.55;;;;;;;0.85;100.00;100923.81;5107937;28;20114;-73
2023/01/02 06:45:46;;;;;;;71.35;34.85;;;;;;;0.83;100.00;100920.44;5101370;28;20123;-73
2023/01/02 06:48:12;;;;;;;87.53;44.45;;;;;;;0.94;100.00;100932.59;5097555;28;20491;-72
2023/01/02 06:50:37;;;;;;;74.65;39.78;;;;;;;1.02;100.00;100929.47;5101325;28;20052;-72
2023/01/02 06:53:02;;;;;;;87.55;45.88;;;;;;;1.07;100.00;100939.78;5105348;28;20482;-72
2023/01/02 06:55:28;;;;;;;80.38;43.38;;;;;;;0.99;100.00;100935.47;5103111;28;20682;-73
2023/01/02 06:57:53;;;;;;;63.70;36.35;;;;;;;1.17;100.00;100934.56;5099572;28;20012;-73
2023/01/02 07:00:19;;;;;;;65.18;35.67;;;;;;;1.36;100.00;100924.28;5103650;28;20020;-72
2023/01/02 07:02:45;;;;;;;50.03;28.58;;;;;;;1.46;100.00;100933.88;5100714;28;20031;-73
2023/01/02 07:05:11;;;;;;;52.55;29.20;;;;;;;1.76;100.00;100938.47;5099167;28;20104;-72
2023/01/02 07:07:37;;;;;;;63.60;30.90;;;;;;;2.08;100.00;100941.69;5102277;28;20402;-72
2023/01/02 07:10:03;;;;;;;63.20;34.90;;;;;;;2.12;100.00;100942.03;5100698;28;20031;-73
2023/01/02 07:12:29;;;;;;;69.25;37.53;;;;;;;2.22;100.00;100939.47;5102810;28;20051;-73
2023/01/02 07:14:54;;;;;;;61.05;34.65;;;;;;;2.32;100.00;100938.03;5102851;28;20027;-71
2023/01/02 07:17:20;;;;;;;57.88;34.45;;;;;;;2.57;100.00;100940.50;5103835;28;20089;-71
2023/01/02 07:19:45;;;;;;;63.83;38.40;;;;;;;2.74;100.00;100948.84;5099559;28;20028;-71
2023/01/02 07:22:11;;;;;;;63.03;36.17;;;;;;;2.97;99.59;100946.22;5101155;28;20023;-74
2023/01/02 07:24:37;;;;;;;65.63;33.97;;;;;;;3.09;98.71;100949.75;5107123;28;20027;-72
2023/01/02 07:27:03;;;;;;;59.60;32.90;;;;;;;3.23;99.06;100936.47;5103884;28;20119;-72
2023/01/02 07:29:28;;;;;;;120.28;67.55;;;;;;;3.51;97.21;100930.03;5106291;28;20026;-73
2023/01/02 07:31:54;;;;;;;127.78;74.15;;;;;;;3.78;95.96;100926.56;5110442;28;20448;-69
2023/01/02 07:34:19;;;;;;;100.25;64.47;;;;;;;4.03;95.14;100936.31;5105273;28;20513;-72
2023/01/02 07:36:45;;;;;;;125.53;70.05;;;;;;;4.29;94.39;100928.38;5109427;28;20028;-72
2023/01/02 07:39:10;;;;;;;230.82;111.28;;;;;;;4.35;93.25;100927.34;5109561;28;20027;-72
2023/01/02 07:41:36;;;;;;;220.55;106.95;;;;;;;4.50;92.37;100934.16;5108316;28;20031;-70
2023/01/02 07:44:01;;;;;;;397.40;211.65;;;;;;;4.73;92.15;100923.91;5110585;28;20027;-73
2023/01/02 07:46:26;;;;;;;159.40;91.63;;;;;;;5.07;90.13;100929.25;5109029;28;20042;-71
2023/01/02 07:48:52;;;;;;;253.02;183.40;;;;;;;4.99;89.63;100926.94;5106286;28;20057;-71
2023/01/02 07:51:17;;;;;;;60.67;41.10;;;;;;;5.11;89.36;100927.63;5107399;28;20465;-72
2023/01/02 07:53:43;;;;;;;68.60;40.25;;;;;;;5.25;89.49;100922.50;5109152;28;20028;-71
2023/01/02 07:56:09;;;;;;;143.57;89.53;;;;;;;5.36;88.59;100917.00;5109380;28;20122;-72
2023/01/02 07:58:34;;;;;;;59.50;39.13;;;;;;;5.55;88.32;100906.31;5108583;28;20030;-73
2023/01/02 08:01:11;;;;;;;67.95;39.90;;;;;;;5.72;87.62;100907.03;5107862;28;20494;-71
2023/01/02 08:03:38;;;;;;;44.63;26.50;;;;;;;5.93;85.30;100909.94;5107735;28;20102;-71
2023/01/02 08:06:06;;;;;;;55.03;28.77;;;;;;;6.16;84.43;100905.09;5110461;28;20027;-72
2023/01/02 08:08:32;;;;;;;58.33;36.83;;;;;;;6.34;83.24;100889.91;5124942;28;20028;-70
2023/01/02 08:10:57;;;;;;;48.03;27.52;;;;;;;6.55;82.37;100901.91;5110257;28;20034;-69
2023/01/02 08:13:23;;;;;;;67.75;49.45;;;;;;;6.79;81.27;100901.44;5107231;28;20093;-73
2023/01/02 08:15:48;;;;;;;57.15;35.97;;;;;;;6.92;80.71;100910.34;5108292;28;20046;-70
2023/01/02 08:18:14;;;;;;;46.28;28.30;;;;;;;7.13;79.42;100908.44;5101304;28;20075;-71
2023/01/02 08:20:39;;;;;;;57.53;28.67;;;;;;;7.19;79.01;100896.22;5107058;28;20031;-71
2023/01/02 08:23:04;;;;;;;52.83;31.40;;;;;;;7.38;80.05;100893.72;5104178;28;20552;-71
2023/01/02 08:25:30;;;;;;;53.97;31.17;;;;;;;7.51;79.30;100892.28;5109211;28;20556;-71
2023/01/02 08:27:55;;;;;;;57.63;34.67;;;;;;;7.38;79.37;100892.88;5108626;28;20591;-73
2023/01/02 08:30:21;;;;;;;56.25;35.05;;;;;;;7.59;79.47;100882.53;5113570;28;20022;-72
2023/01/02 08:32:46;;;;;;;50.67;31.00;;;;;;;7.83;77.97;100887.50;5113212;28;20410;-72
2023/01/02 08:35:12;;;;;;;51.80;30.42;;;;;;;7.79;78.78;100881.69;5114474;28;20020;-72
2023/01/02 08:37:37;;;;;;;42.90;25.55;;;;;;;8.06;78.74;100882.44;5111902;28;20084;-72
2023/01/02 08:40:03;;;;;;;44.58;26.33;;;;;;;8.15;78.69;100889.09;5110588;28;20076;-74
2023/01/02 08:42:29;;;;;;;36.67;23.40;;;;;;;8.24;78.33;100875.41;5112861;28;20559;-72
2023/01/02 08:44:54;;;;;;;33.60;19.80;;;;;;;8.32;76.70;100873.97;5110680;28;20016;-72
2023/01/02 08:47:20;;;;;;;32.47;20.92;;;;;;;7.76;79.76;100867.50;5112026;28;20030;-73
2023/01/02 08:49:45;;;;;;;35.30;21.73;;;;;;;8.23;80.32;100869.03;5103164;28;20478;-73
2023/01/02 08:52:11;;;;;;;35.50;21.35;;;;;;;8.72;78.48;100863.78;5108939;28;20015;-72
2023/01/02 08:54:36;;;;;;;35.90;21.52;;;;;;;8.89;76.45;100846.66;5112065;28;20031;-73
2023/01/02 08:57:01;;;;;;;31.38;18.83;;;;;;;9.01;75.88;100848.25;5103693;28;20031;-73
2023/01/02 08:59:27;;;;;;;29.77;17.00;;;;;;;9.05;73.46;100843.75;5098525;28;20026;-73
2023/01/02 09:01:53;;;;;;;26.25;15.77;;;;;;;9.25;73.50;100838.00;5109094;28;20063;-73
2023/01/02 09:04:19;;;;;;;27.10;15.98;;;;;;;9.59;71.84;100841.88;5103825;28;20024;-73
2023/01/02 09:06:45;;;;;;;29.13;16.48;;;;;;;9.54;73.12;100830.75;5110576;28;20020;-73
2023/01/02 09:09:13;;;;;;;25.70;15.45;;;;;;;9.60;71.21;100828.75;5112075;28;20498;-73
2023/01/02 09:11:51;;;;;;;24.85;13.95;;;;;;;9.60;71.24;100821.19;5111815;28;20026;-73
2023/01/02 09:14:18;;;;;;;22.38;14.77;;;;;;;9.92;70.65;100816.91;5109308;28;20023;-73
2023/01/02 09:16:43;;;;;;;20.52;13.95;;;;;;;10.21;70.72;100826.34;5093441;28;20055;-72
2023/01/02 09:19:09;;;;;;;99.50;19.92;;;;;;;10.23;69.03;100810.13;5109921;28;20100;-73
2023/01/02 09:21:34;;;;;;;25.63;14.60;;;;;;;10.33;69.14;100818.38;5111356;28;20027;-73
2023/01/02 09:24:00;;;;;;;20.65;13.35;;;;;;;10.57;68.91;100819.47;5105935;28;20107;-75
2023/01/02 09:26:26;;;;;;;21.10;13.65;;;;;;;10.62;68.36;100809.03;5105791;28;20029;-76
2023/01/02 09:28:51;;;;;;;14.73;10.93;;;;;;;10.62;66.71;100806.22;5110092;28;20066;-73
2023/01/02 09:31:18;;;;;;;18.77;11.68;;;;;;;10.75;67.05;100812.19;5111177;28;20024;-74
2023/01/02 09:33:45;;;;;;;19.40;13.05;;;;;;;10.82;67.88;100807.06;5106291;28;20024;-74
2023/01/02 09:36:12;;;;;;;20.48;13.68;;;;;;;10.86;67.75;100804.47;5112113;28;20065;-74
2023/01/02 09:38:38;;;;;;;22.58;14.15;;;;;;;10.79;67.18;100807.66;5107831;28;20144;-73
2023/01/02 09:41:36;;;;;;;21.27;12.95;;;;;;;11.00;67.69;100790.53;5105884;28;20585;-74
2023/01/02 09:44:07;;;;;;;22.38;14.10;;;;;;;11.02;66.86;100791.91;5108313;28;20578;-73
2023/01/02 09:46:59;;;;;;;22.27;14.45;;;;;;;11.04;67.29;100774.78;5104958;28;20027;-74
2023/01/02 09:49:35;;;;;;;22.98;15.23;;;;;;;11.01;66.80;100772.59;5101233;28;20024;-74
2023/01/02 09:52:01;;;;;;;24.80;16.63;;;;;;;11.17;67.02;100779.59;5108884;28;20088;-73
2023/01/02 09:54:29;;;;;;;34.15;18.15;;;;;;;11.13;66.66;100767.34;5109954;28;20486;-74
2023/01/02 09:57:16;;;;;;;29.15;18.13;;;;;;;11.27;67.56;100770.19;5102438;28;20051;-73
2023/01/02 10:00:08;;;;;;;23.17;16.30;;;;;;;11.35;65.51;100763.03;5103557;28;20028;-72
2023/01/02 10:03:11;;;;;;;25.90;17.20;;;;;;;11.47;65.33;100766.16;5102217;28;20015;-73
2023/01/02 10:06:04;;;;;;;35.53;19.58;;;;;;;11.52;64.83;100763.28;5092758;28;20043;-73
2023/01/02 10:08:36;;;;;;;27.88;17.40;;;;;;;11.55;64.54;100772.19;5102456;28;20118;-73
2023/01/02 10:11:05;;;;;;;31.60;20.05;;;;;;;11.57;64.22;100759.53;5101824;28;20063;-73
2023/01/02 10:13:42;;;;;;;31.13;19.48;;;;;;;11.61;63.86;100756.94;5096857;28;20028;-73
2023/01/02 10:16:15;;;;;;;43.70;23.95;;;;;;;11.64;64.68;100750.69;5102082;27;20506;-74
2023/01/02 10:18:45;;;;;;;33.60;19.63;;;;;;;11.50;63.85;100745.09;5107767;27;20059;-73
2023/01/02 10:21:25;;;;;;;44.25;24.25;;;;;;;11.59;65.06;100743.25;5109060;28;20516;-74
2023/01/02 10:24:03;;;;;;;41.95;23.45;;;;;;;11.67;64.71;100744.50;5105251;28;20115;-74
2023/01/02 10:26:35;;;;;;;37.50;21.05;;;;;;;11.65;63.46;100742.00;5106216;28;20057;-73
2023/01/02 10:29:26;;;;;;;36.80;20.77;;;;;;;11.79;63.14;100739.19;5106375;28;20023;-75
2023/01/02 10:32:01;;;;;;;;;;;;;;;11.73;62.63;100734.00;5104521;28;20031;-74
2023/01/02 10:34:41;;;;;;;29.85;18.33;;;;;;;11.89;62.55;100738.13;5110376;28;20017;-74
2023/01/02 10:37:14;;;;;;;34.07;19.00;;;;;;;12.03;62.06;100738.16;5100652;27;20114;-73
2023/01/02 10:39:45;;;;;;;30.08;17.25;;;;;;;12.02;61.12;100732.84;5097597;28;20051;-73
2023/01/02 10:42:11;;;;;;;;;;;;;;;12.03;61.30;100724.16;5099033;28;20099;-72
2023/01/02 10:44:38;;;;;;;27.35;16.52;;;;;;;11.97;60.71;100728.16;5102281;28;19981;-74
2023/01/02 10:47:10;;;;;;;27.10;16.23;;;;;;;11.92;60.41;100729.09;5096563;28;20517;-72
2023/01/02 10:49:36;;;;;;;24.13;14.88;;;;;;;12.17;60.78;100724.09;5090598;28;20089;-72
2023/01/02 10:52:19;;;;;;;33.15;18.35;;;;;;;12.21;59.67;100719.53;5094269;28;20127;-71
2023/01/02 10:54:53;;;;;;;24.77;15.18;;;;;;;12.33;58.79;100718.97;5097184;28;20031;-73
2023/01/02 10:57:45;;;;;;;38.80;20.50;;;;;;;12.41;58.73;100705.34;5100592;28;20030;-73
2023/01/02 11:00:17;;;;;;;23.00;15.23;;;;;;;12.46;58.25;100703.25;5104026;28;20020;-73
2023/01/02 11:02:48;;;;;;;38.63;24.45;;;;;;;12.55;58.64;100699.66;5106769;28;20506;-72
2023/01/02 11:05:22;;;;;;;23.23;15.52;;;;;;;12.57;57.82;100705.81;5106511;28;20027;-75
2023/01/02 11:07:50;;;;;;;22.33;14.48;;;;;;;12.60;58.14;100702.34;5105673;28;20415;-70
2023/01/02 11:10:29;;;;;;;27.30;16.23;;;;;;;12.68;57.44;100698.78;5106077;28;20462;-73
2023/01/02 11:13:00;;;;;;;35.83;19.70;;;;;;;12.72;58.55;100693.34;5099435;28;20028;-72
2023/01/02 11:15:27;;;;;;;;;;;;;;;13.00;56.42;100688.41;5105913;28;20058;-71
2023/01/02 11:17:53;;;;;;;25.98;15.50;;;;;;;12.86;56.57;100679.22;5104302;28;19920;-71
2023/01/02 11:20:30;;;;;;;24.92;14.60;;;;;;;12.96;57.29;100684.59;5106939;28;20031;-72
2023/01/02 11:23:00;;;;;;;22.95;14.05;;;;;;;12.89;57.52;100675.78;5105654;28;20077;-71
2023/01/02 11:25:31;;;;;;;21.43;14.60;;;;;;;12.95;57.18;100668.03;5105863;28;20417;-72
2023/01/02 11:27:59;;;;;;;22.38;14.43;;;;;;;13.00;56.00;100665.13;5105421;28;20103;-72
2023/01/02 11:30:46;;;;;;;17.88;12.50;;;;;;;13.14;55.33;100668.66;5103730;28;20061;-71
2023/01/02 11:33:28;;;;;;;19.35;12.60;;;;;;;13.23;54.29;100659.44;5103102;28;20453;-73